Little Torch Key, Florida
Current Conditions -  °F | °C
As of 3:53 PM on Thursday 23 Oct 2014 (Local Time) from KNQX Reporting Station
Overcast Overcast  
Wind Chill: 75°   Ceiling: 5000
Heat Index: 75°   Visibility: 10mi
Dew Point: 73°   Wind: 13mph
Humidity: 94%   Direction: 70°ENE
Pressure: 29.83"   Gusts: NA
Location:  24.6465°N, 81.5399°W
Report Text: KNQX 231953Z 07011KT 10SM FEW012 SCT025 OVC050 24/23 A2983 RMK AO2 RAB1856E41 SLP099 P0014 T02390228 $
Loading
Personal Weather Stations






























Interactive Weather Map
Tropical Storm Tracking
New forecast layout! Learn more

10-Day Weather Forecast

Advertisements
Track Severe Weather on mobile